Time;durP1;ratioP1;P1;durP2;ratioP2;P2;SDS_P1;SDS_P2;PMS_P1;PMS_P2;Temp;Humidity;BMP_temperature;BMP_pressure;BME280_temperature;BME280_humidity;BME280_pressure;Samples;Min_cycle;Max_cycle;Signal;HPM_P1;HPM_P2
2022/01/29 00:01:01;;;;;;;;;;;-1.20;99.90;;;;;;4176882;28;19925;-50
2022/01/29 00:03:03;;;;;;;;;;;-1.30;99.90;;;;;;4186948;28;19933;-52
2022/01/29 00:05:05;;;;;;;;;;;-1.40;99.90;;;;;;4169633;28;20020;-51
2022/01/29 00:07:08;;;;;;;;;;;-1.50;99.90;;;;;;4172581;28;20375;-52
2022/01/29 00:09:14;;;;;;;;;;;-1.50;99.90;;;;;;4179228;28;19929;-51
2022/01/29 00:11:17;;;;;;;;;;;-1.40;99.90;;;;;;4177280;28;19963;-51
2022/01/29 00:13:19;;;;;;;;;;;-1.40;99.90;;;;;;4177387;28;19983;-52
2022/01/29 00:15:21;;;;;;;;;;;-1.40;99.90;;;;;;4164783;28;20838;-51
2022/01/29 00:17:23;;;;;;;;;;;-1.60;99.90;;;;;;4175689;28;19924;-52
2022/01/29 00:19:25;;;;;;;;;;;-1.60;99.90;;;;;;4175131;28;19928;-51
2022/01/29 00:21:27;;;;;;;;;;;-1.50;99.90;;;;;;4166465;28;19929;-51
2022/01/29 00:23:29;;;;;;;;;;;-1.60;99.90;;;;;;4168425;28;20015;-51
2022/01/29 00:25:31;;;;;;;;;;;-1.60;99.90;;;;;;4172423;28;19975;-51
2022/01/29 00:27:35;;;;;;;;;;;-1.50;99.90;;;;;;4179166;28;20023;-52
2022/01/29 00:29:39;;;;;;;;;;;-1.50;99.90;;;;;;4177061;28;19936;-50
2022/01/29 00:31:41;;;;;;;;;;;-1.50;99.90;;;;;;4176371;28;20388;-51
2022/01/29 00:33:43;;;;;;;;;;;-1.50;99.90;;;;;;4165035;28;19968;-51
2022/01/29 00:35:45;;;;;;;;;;;-1.50;99.90;;;;;;4177429;28;20046;-51
2022/01/29 00:37:47;;;;;;;;;;;-1.80;99.90;;;;;;4177025;28;19964;-51
2022/01/29 00:39:48;;;;;;;;;;;-2.00;99.90;;;;;;4177588;28;19959;-52
2022/01/29 00:41:51;;;;;;;;;;;-2.20;99.90;;;;;;4170850;28;20008;-52
2022/01/29 00:44:12;;;;;;;;;;;-2.30;99.90;;;;;;4168349;28;19932;-51
2022/01/29 00:46:14;;;;;;;;;;;-2.40;99.90;;;;;;4178949;28;19971;-51
2022/01/29 00:48:16;;;;;;;;;;;-2.40;99.90;;;;;;4171278;28;20504;-50
2022/01/29 00:50:19;;;;;;;;;;;-2.40;99.90;;;;;;4165524;28;19925;-51
2022/01/29 00:52:20;;;;;;;;;;;-2.30;99.90;;;;;;4178723;28;19947;-52
2022/01/29 00:54:22;;;;;;;;;;;-2.30;99.90;;;;;;4176745;28;20015;-52
2022/01/29 00:56:24;;;;;;;;;;;-2.10;99.90;;;;;;4175572;28;19971;-51
2022/01/29 00:58:26;;;;;;;;;;;-2.10;99.90;;;;;;4178572;28;20024;-50
2022/01/29 01:00:28;;;;;;;;;;;-2.10;99.90;;;;;;4176463;28;20293;-51
2022/01/29 01:02:30;;;;;;;;;;;-2.10;99.90;;;;;;4178076;28;19925;-50
2022/01/29 01:04:32;;;;;;;;;;;-2.10;99.90;;;;;;4176865;28;20020;-52
2022/01/29 01:06:34;;;;;;;;;;;-2.00;99.90;;;;;;4175086;28;19928;-49
2022/01/29 01:08:36;;;;;;;;;;;-2.00;99.90;;;;;;4174670;28;20370;-50
2022/01/29 01:10:38;;;;;;;;;;;-2.10;99.90;;;;;;4177994;28;19976;-51
2022/01/29 01:12:40;;;;;;;;;;;-2.10;99.90;;;;;;4177632;28;20389;-51
2022/01/29 01:14:42;;;;;;;;;;;-2.20;99.90;;;;;;4178099;28;20027;-51
2022/01/29 01:16:44;;;;;;;;;;;-2.30;99.90;;;;;;4176902;28;19936;-51
2022/01/29 01:18:46;;;;;;;;;;;-2.30;99.90;;;;;;4172345;28;19971;-52
2022/01/29 01:20:48;;;;;;;;;;;-2.40;99.90;;;;;;4175042;28;19935;-50
2022/01/29 01:22:50;;;;;;;;;;;-2.30;99.90;;;;;;4170855;28;19929;-52
2022/01/29 01:24:52;;;;;;;;;;;-2.30;99.90;;;;;;4176678;28;20042;-50
2022/01/29 01:26:54;;;;;;;;;;;-2.30;99.90;;;;;;4177705;28;19969;-51
2022/01/29 01:28:55;;;;;;;;;;;-2.20;99.90;;;;;;4176593;28;19924;-52
2022/01/29 01:30:57;;;;;;;;;;;-2.20;99.90;;;;;;4175273;28;19964;-49
2022/01/29 01:33:02;;;;;;;;;;;-2.10;99.90;;;;;;4177204;28;19925;-50
2022/01/29 01:35:31;;;;;;;;;;;-2.00;99.90;;;;;;4172954;28;20353;-49
2022/01/29 01:37:36;;;;;;;;;;;-2.10;99.90;;;;;;4171718;28;19971;-50
2022/01/29 01:39:40;;;;;;;;;;;-2.40;99.90;;;;;;4176333;28;19964;-51
2022/01/29 01:41:52;;;;;;;;;;;-2.50;99.90;;;;;;4167438;28;19925;-51
2022/01/29 01:44:00;;;;;;;;;;;-2.60;99.90;;;;;;4174851;28;20019;-51
2022/01/29 01:46:02;;;;;;;;;;;-2.60;99.90;;;;;;4174729;28;19928;-49
2022/01/29 01:48:06;;;;;;;;;;;-2.60;99.90;;;;;;4177516;28;19935;-52
2022/01/29 01:50:08;;;;;;;;;;;-2.70;99.90;;;;;;4174814;28;19933;-51
2022/01/29 01:52:11;;;;;;;;;;;-2.60;99.90;;;;;;4175798;28;20420;-51
2022/01/29 01:54:13;;;;;;;;;;;-2.50;99.90;;;;;;4177531;28;20300;-50
2022/01/29 01:56:15;;;;;;;;;;;-2.50;99.90;;;;;;4172352;28;19971;-51
2022/01/29 01:58:17;;;;;;;;;;;-2.70;99.90;;;;;;4170493;28;19975;-52
2022/01/29 02:00:19;;;;;;;;;;;-2.80;99.90;;;;;;4178792;28;20385;-49
2022/01/29 02:02:21;;;;;;;;;;;-2.80;99.90;;;;;;4175628;28;20376;-49
2022/01/29 02:04:23;;;;;;;;;;;-2.90;99.90;;;;;;4174619;28;20407;-50
2022/01/29 02:06:26;;;;;;;;;;;-2.90;99.90;;;;;;4177585;28;19925;-49
2022/01/29 02:08:28;;;;;;;;;;;-2.90;99.90;;;;;;4176395;28;19955;-49
2022/01/29 02:10:30;;;;;;;;;;;-3.00;99.90;;;;;;4176972;28;19929;-51
2022/01/29 02:12:43;;;;;;;;;;;-3.00;99.90;;;;;;4176444;28;19960;-49
2022/01/29 02:14:45;;;;;;;;;;;-2.90;99.90;;;;;;4174410;28;20412;-50
2022/01/29 02:16:47;;;;;;;;;;;-2.80;99.90;;;;;;4177010;28;20032;-50
2022/01/29 02:18:49;;;;;;;;;;;-2.70;99.90;;;;;;4173853;28;19982;-48
2022/01/29 02:20:51;;;;;;;;;;;-2.80;99.90;;;;;;4174011;28;19964;-51
2022/01/29 02:22:53;;;;;;;;;;;-2.90;99.90;;;;;;4175869;28;19964;-50
2022/01/29 02:24:55;;;;;;;;;;;-2.90;99.90;;;;;;4176072;28;19928;-50
2022/01/29 02:26:57;;;;;;;;;;;-3.00;99.90;;;;;;4176238;28;19925;-50
2022/01/29 02:28:59;;;;;;;;;;;-3.00;99.90;;;;;;4175732;28;20343;-49
2022/01/29 02:31:03;;;;;;;;;;;-3.10;99.90;;;;;;4175310;28;20399;-49
2022/01/29 02:33:08;;;;;;;;;;;-3.00;99.90;;;;;;4175555;28;21032;-50
2022/01/29 02:35:10;;;;;;;;;;;-2.90;99.90;;;;;;4176984;28;19974;-51
2022/01/29 02:37:13;;;;;;;;;;;-2.80;99.90;;;;;;4175728;28;19976;-51
2022/01/29 02:39:17;;;;;;;;;;;-2.90;99.90;;;;;;4175169;28;19925;-51
2022/01/29 02:41:20;;;;;;;;;;;-2.90;99.90;;;;;;4176882;28;19952;-51
2022/01/29 02:43:25;;;;;;;;;;;-2.90;99.90;;;;;;4165948;28;19947;-51
2022/01/29 02:45:28;;;;;;;;;;;-2.80;99.90;;;;;;4168590;28;19929;-50
2022/01/29 02:47:33;;;;;;;;;;;-2.80;99.90;;;;;;4175559;28;20472;-48
2022/01/29 02:49:34;;;;;;;;;;;-2.80;99.90;;;;;;4175313;28;19940;-46
2022/01/29 02:51:42;;;;;;;;;;;-2.80;99.90;;;;;;4175217;28;19975;-47
2022/01/29 02:53:45;;;;;;;;;;;-2.70;99.90;;;;;;4175201;28;20023;-48
2022/01/29 02:55:47;;;;;;;;;;;-2.70;99.90;;;;;;4175367;28;19931;-47
2022/01/29 02:57:48;;;;;;;;;;;-2.70;99.90;;;;;;4173495;28;19964;-48
2022/01/29 02:59:51;;;;;;;;;;;-2.80;99.90;;;;;;4177331;28;19929;-48
2022/01/29 03:01:53;;;;;;;;;;;-2.90;99.90;;;;;;4174116;28;21687;-51
2022/01/29 03:03:56;;;;;;;;;;;-2.90;99.90;;;;;;4174789;28;19975;-50
2022/01/29 03:05:58;;;;;;;;;;;-3.00;99.90;;;;;;4159423;28;19929;-50
2022/01/29 03:08:00;;;;;;;;;;;-3.20;99.90;;;;;;4176252;28;19925;-51
2022/01/29 03:10:02;;;;;;;;;;;-3.30;99.90;;;;;;4175210;28;19955;-48
2022/01/29 03:12:04;;;;;;;;;;;-3.40;99.90;;;;;;4176607;28;19932;-50
2022/01/29 03:14:06;;;;;;;;;;;-3.30;99.90;;;;;;4169111;28;19965;-49
2022/01/29 03:16:08;;;;;;;;;;;-3.40;99.90;;;;;;4173731;28;19924;-51
2022/01/29 03:18:10;;;;;;;;;;;-3.50;99.90;;;;;;4163152;28;20304;-51
2022/01/29 03:20:12;;;;;;;;;;;-3.60;99.90;;;;;;4174224;28;19925;-50
2022/01/29 03:22:14;;;;;;;;;;;-3.50;99.90;;;;;;4173756;28;20019;-50
2022/01/29 03:24:15;;;;;;;;;;;-3.50;99.90;;;;;;4176829;28;20038;-49
2022/01/29 03:26:17;;;;;;;;;;;-3.50;99.90;;;;;;4167630;28;19971;-51
2022/01/29 03:28:19;;;;;;;;;;;-3.50;99.90;;;;;;4171774;28;19979;-51
2022/01/29 03:30:21;;;;;;;;;;;-3.60;99.90;;;;;;4176528;28;19925;-47
2022/01/29 03:32:23;;;;;;;;;;;-3.70;99.90;;;;;;4177893;28;19925;-50
2022/01/29 03:34:25;;;;;;;;;;;-3.70;99.90;;;;;;4179375;28;20043;-51
2022/01/29 03:36:27;;;;;;;;;;;-3.70;99.90;;;;;;4168600;28;20581;-51
2022/01/29 03:38:29;;;;;;;;;;;-3.50;99.90;;;;;;4176524;28;19933;-50
2022/01/29 03:40:32;;;;;;;;;;;-3.50;99.90;;;;;;4178965;28;20487;-50
2022/01/29 03:42:47;;;;;;;;;;;-3.30;99.90;;;;;;4167047;28;19979;-51
2022/01/29 03:44:55;;;;;;;;;;;-3.30;99.90;;;;;;4172264;28;20312;-50
2022/01/29 03:46:56;;;;;;;;;;;-3.20;99.90;;;;;;4170608;28;19983;-51
2022/01/29 03:48:59;;;;;;;;;;;-3.40;99.90;;;;;;4179194;28;19931;-50
2022/01/29 03:51:01;;;;;;;;;;;-3.40;99.90;;;;;;4172627;28;20012;-51
2022/01/29 03:53:03;;;;;;;;;;;-3.40;99.90;;;;;;4171031;28;20347;-50
2022/01/29 03:55:05;;;;;;;;;;;-3.30;99.90;;;;;;4165238;28;19968;-50
2022/01/29 03:57:07;;;;;;;;;;;-3.30;99.90;;;;;;4175589;28;20020;-51
2022/01/29 03:59:09;;;;;;;;;;;-3.20;99.90;;;;;;4178034;28;19936;-51
2022/01/29 04:01:11;;;;;;;;;;;-3.10;99.90;;;;;;4163743;28;19925;-49
2022/01/29 04:03:13;;;;;;;;;;;-3.10;99.90;;;;;;4173091;28;19932;-48
2022/01/29 04:05:15;;;;;;;;;;;-3.30;99.90;;;;;;4177806;28;20020;-49
2022/01/29 04:07:17;;;;;;;;;;;-3.60;99.90;;;;;;4175314;28;20096;-50
2022/01/29 04:09:20;;;;;;;;;;;-3.80;99.90;;;;;;4171812;28;20296;-51
2022/01/29 04:11:22;;;;;;;;;;;-3.90;99.90;;;;;;4177517;28;19925;-51
2022/01/29 04:13:26;;;;;;;;;;;-3.90;99.90;;;;;;4167128;28;19929;-51
2022/01/29 04:15:28;;;;;;;;;;;-3.90;99.90;;;;;;4169654;28;20015;-49
2022/01/29 04:17:30;;;;;;;;;;;-4.00;99.90;;;;;;4164594;28;19929;-49
2022/01/29 04:19:33;;;;;;;;;;;-4.10;99.90;;;;;;4167556;28;19931;-51
2022/01/29 04:21:35;;;;;;;;;;;-4.10;99.90;;;;;;4172048;28;20513;-51
2022/01/29 04:23:37;;;;;;;;;;;-4.10;99.90;;;;;;4178040;28;20376;-50
2022/01/29 04:25:39;;;;;;;;;;;-4.00;99.90;;;;;;4167966;28;20587;-50
2022/01/29 04:27:44;;;;;;;;;;;-4.10;99.90;;;;;;4169592;28;20347;-50
2022/01/29 04:29:55;;;;;;;;;;;-4.00;99.90;;;;;;4164047;28;19937;-51
2022/01/29 04:32:06;;;;;;;;;;;-3.90;99.90;;;;;;4176788;28;19932;-51
2022/01/29 04:34:08;;;;;;;;;;;-4.00;99.90;;;;;;4177026;28;20449;-50
2022/01/29 04:36:10;;;;;;;;;;;-3.90;99.90;;;;;;4178308;28;19929;-50
2022/01/29 04:38:12;;;;;;;;;;;-4.00;99.90;;;;;;4178637;28;20296;-50
2022/01/29 04:40:14;;;;;;;;;;;-3.90;99.90;;;;;;4176411;28;19933;-51
2022/01/29 04:42:16;;;;;;;;;;;-3.80;99.90;;;;;;4176292;28;20478;-51
2022/01/29 04:44:18;;;;;;;;;;;-3.90;99.90;;;;;;4178630;28;19954;-50
2022/01/29 04:46:20;;;;;;;;;;;-4.00;99.90;;;;;;4175935;28;19952;-49
2022/01/29 04:48:22;;;;;;;;;;;-4.00;99.90;;;;;;4177298;28;19929;-51
2022/01/29 04:50:24;;;;;;;;;;;-4.00;99.90;;;;;;4177397;28;19947;-49
2022/01/29 04:52:26;;;;;;;;;;;-4.00;99.90;;;;;;4176095;28;19944;-50
2022/01/29 04:54:28;;;;;;;;;;;-4.00;99.90;;;;;;4177385;28;19933;-51
2022/01/29 04:56:30;;;;;;;;;;;-3.90;99.90;;;;;;4177191;28;19937;-50
2022/01/29 04:58:32;;;;;;;;;;;-3.90;99.90;;;;;;4175410;28;20359;-51
2022/01/29 05:00:35;;;;;;;;;;;-3.80;99.90;;;;;;4179109;28;19924;-48
2022/01/29 05:02:37;;;;;;;;;;;-3.90;99.90;;;;;;4171482;28;20395;-50
2022/01/29 05:04:39;;;;;;;;;;;-3.80;99.90;;;;;;4175530;28;19928;-50
2022/01/29 05:06:41;;;;;;;;;;;-3.70;99.90;;;;;;4172800;28;19928;-51
2022/01/29 05:08:43;;;;;;;;;;;-3.70;99.90;;;;;;4169254;28;19932;-50
2022/01/29 05:10:46;;;;;;;;;;;-3.80;99.90;;;;;;4175706;28;20389;-49
2022/01/29 05:28:36;;;;;;;;;;;-3.50;99.90;;;;;;4175391;28;19925;-51
2022/01/29 05:30:38;;;;;;;;;;;-3.40;99.90;;;;;;4176350;28;19947;-48
2022/01/29 05:32:39;;;;;;;;;;;-3.50;99.90;;;;;;4176189;28;19925;-51
2022/01/29 05:34:41;;;;;;;;;;;-3.40;99.90;;;;;;4166725;28;19932;-49
2022/01/29 05:37:03;;;;;;;;;;;-3.70;99.90;;;;;;4166155;28;19925;-48
2022/01/29 05:39:05;;;;;;;;;;;-3.90;99.90;;;;;;4174484;28;19933;-51
2022/01/29 05:41:07;;;;;;;;;;;-3.90;99.90;;;;;;4176771;28;19925;-50
2022/01/29 05:43:09;;;;;;;;;;;-3.90;99.90;;;;;;4149398;28;19930;-51
2022/01/29 05:45:11;;;;;;;;;;;-3.90;99.90;;;;;;4170169;28;19928;-50
2022/01/29 05:47:13;;;;;;;;;;;-3.80;99.90;;;;;;4178053;28;20285;-50
2022/01/29 05:49:15;;;;;;;;;;;-3.70;99.90;;;;;;4167852;28;19925;-50
2022/01/29 05:51:17;;;;;;;;;;;-3.70;99.90;;;;;;4169675;28;20019;-51
2022/01/29 05:53:19;;;;;;;;;;;-3.70;99.90;;;;;;4161070;28;19925;-50
2022/01/29 05:55:22;;;;;;;;;;;-3.80;99.90;;;;;;4176998;28;20018;-50
2022/01/29 05:57:24;;;;;;;;;;;-3.70;99.90;;;;;;4176728;28;20377;-51
2022/01/29 05:59:26;;;;;;;;;;;-3.80;99.90;;;;;;4161848;28;19956;-50
2022/01/29 06:01:28;;;;;;;;;;;-3.90;99.90;;;;;;4173051;28;19925;-50
2022/01/29 06:03:30;;;;;;;;;;;-4.10;99.90;;;;;;4159836;28;20031;-49
2022/01/29 06:05:32;;;;;;;;;;;-4.20;99.90;;;;;;4178172;28;20269;-51
2022/01/29 06:07:34;;;;;;;;;;;-4.20;99.90;;;;;;4174922;28;19931;-51
2022/01/29 06:09:36;;;;;;;;;;;-4.20;99.90;;;;;;4175680;28;19929;-51
2022/01/29 06:11:38;;;;;;;;;;;-4.20;99.90;;;;;;4176749;28;19925;-50
2022/01/29 06:13:39;;;;;;;;;;;-4.10;99.90;;;;;;4171561;28;19929;-50
2022/01/29 06:15:43;;;;;;;;;;;-4.10;99.90;;;;;;4164968;28;20015;-50
2022/01/29 06:17:45;;;;;;;;;;;-4.10;99.90;;;;;;4163379;28;19929;-47
2022/01/29 06:19:48;;;;;;;;;;;-4.00;99.90;;;;;;4173294;28;20078;-51
2022/01/29 06:21:54;;;;;;;;;;;-3.90;99.90;;;;;;4159030;28;20083;-51
2022/01/29 06:23:57;;;;;;;;;;;-3.70;99.90;;;;;;4177406;28;19983;-51
2022/01/29 06:26:02;;;;;;;;;;;-3.80;99.90;;;;;;4169181;28;20350;-50
2022/01/29 06:28:04;;;;;;;;;;;-3.90;99.90;;;;;;4164631;28;20168;-50
2022/01/29 06:30:06;;;;;;;;;;;-3.80;99.90;;;;;;4176003;28;19940;-51
2022/01/29 06:32:08;;;;;;;;;;;-3.80;99.90;;;;;;4175420;28;20012;-49
2022/01/29 06:34:10;;;;;;;;;;;-3.80;99.90;;;;;;4176869;28;19932;-48
2022/01/29 06:36:12;;;;;;;;;;;-3.80;99.90;;;;;;4176399;28;19929;-49
2022/01/29 06:38:14;;;;;;;;;;;-3.70;99.90;;;;;;4175134;28;19932;-50
2022/01/29 06:40:16;;;;;;;;;;;-3.90;99.90;;;;;;4177252;28;19929;-50
2022/01/29 06:42:18;;;;;;;;;;;-3.80;99.90;;;;;;4182888;28;19939;-50
2022/01/29 06:44:20;;;;;;;;;;;-3.90;99.90;;;;;;4177486;28;19936;-50
2022/01/29 06:46:22;;;;;;;;;;;-4.10;99.90;;;;;;4182000;28;19931;-47
2022/01/29 06:48:24;;;;;;;;;;;-4.10;99.90;;;;;;4172623;28;20335;-47
2022/01/29 06:50:26;;;;;;;;;;;-4.20;99.90;;;;;;4171829;28;19934;-50
2022/01/29 06:52:28;;;;;;;;;;;-4.20;99.90;;;;;;4174191;28;19967;-48
2022/01/29 06:54:30;;;;;;;;;;;-4.20;99.90;;;;;;4175716;28;19925;-50
2022/01/29 06:56:32;;;;;;;;;;;-4.20;99.90;;;;;;4174292;28;19936;-50
2022/01/29 06:58:34;;;;;;;;;;;-4.10;99.90;;;;;;4175162;28;19960;-48
2022/01/29 07:00:56;;;;;;;;;;;-4.20;99.90;;;;;;4179293;28;20423;-49
2022/01/29 07:02:58;;;;;;;;;;;-4.30;99.90;;;;;;4175055;28;20015;-50
2022/01/29 07:05:00;;;;;;;;;;;-4.40;99.90;;;;;;4175784;28;19925;-50
2022/01/29 07:07:02;;;;;;;;;;;-4.50;99.90;;;;;;4179224;28;20399;-49
2022/01/29 07:09:05;;;;;;;;;;;-4.50;99.90;;;;;;4176496;28;20282;-49
2022/01/29 07:11:06;;;;;;;;;;;-4.50;99.90;;;;;;4174031;28;19928;-51
2022/01/29 07:13:08;;;;;;;;;;;-4.50;99.90;;;;;;4170250;28;19935;-48
2022/01/29 07:15:11;;;;;;;;;;;-4.50;99.90;;;;;;4177607;28;19925;-49
2022/01/29 07:17:16;;;;;;;;;;;-4.50;99.90;;;;;;4180165;28;20420;-49
2022/01/29 07:19:18;;;;;;;;;;;-4.40;99.90;;;;;;4177833;28;20591;-49
2022/01/29 07:21:20;;;;;;;;;;;-4.40;99.90;;;;;;4178273;28;19946;-50
2022/01/29 07:23:22;;;;;;;;;;;-4.30;99.90;;;;;;4178577;28;19929;-50
2022/01/29 07:25:25;;;;;;;;;;;-4.30;99.90;;;;;;4178579;28;20320;-50
2022/01/29 07:27:27;;;;;;;;;;;-4.20;99.90;;;;;;4176721;28;20416;-49
2022/01/29 07:29:29;;;;;;;;;;;-4.10;99.90;;;;;;4168202;28;19953;-49
2022/01/29 07:31:31;;;;;;;;;;;-4.00;99.90;;;;;;4177959;28;19932;-50
2022/01/29 07:33:33;;;;;;;;;;;-3.80;99.90;;;;;;4177126;28;19951;-49
2022/01/29 07:35:35;;;;;;;;;;;-3.70;99.90;;;;;;4180494;28;19929;-49
2022/01/29 07:37:37;;;;;;;;;;;-3.60;99.90;;;;;;4179297;28;19939;-49
2022/01/29 07:39:39;;;;;;;;;;;-3.50;99.90;;;;;;4176653;28;19936;-51
2022/01/29 07:41:40;;;;;;;;;;;-3.50;99.90;;;;;;4179867;28;19925;-50
2022/01/29 07:43:42;;;;;;;;;;;-3.70;99.90;;;;;;4172467;28;20059;-50
2022/01/29 07:45:44;;;;;;;;;;;-3.80;99.90;;;;;;4171201;28;19933;-49
2022/01/29 07:47:46;;;;;;;;;;;-3.90;99.90;;;;;;4178171;28;19932;-48
2022/01/29 07:49:48;;;;;;;;;;;-3.80;99.90;;;;;;4176682;28;19925;-51
2022/01/29 07:51:50;;;;;;;;;;;-3.70;99.90;;;;;;4177621;28;19935;-49
2022/01/29 07:53:52;;;;;;;;;;;-3.80;99.90;;;;;;4180081;28;19936;-49
2022/01/29 07:55:54;;;;;;;;;;;-3.70;99.90;;;;;;4174783;28;19925;-50
2022/01/29 07:57:56;;;;;;;;;;;-3.60;99.90;;;;;;4189290;28;19933;-47
2022/01/29 07:59:58;;;;;;;;;;;-3.40;99.90;;;;;;4179679;28;19929;-49
2022/01/29 08:02:00;;;;;;;;;;;-3.20;99.90;;;;;;4178689;28;19933;-48
2022/01/29 08:04:02;;;;;;;;;;;-3.10;99.90;;;;;;4177236;28;19929;-48
2022/01/29 08:06:04;;;;;;;;;;;-3.00;99.90;;;;;;4179451;28;19925;-48
2022/01/29 08:08:06;;;;;;;;;;;-2.80;99.90;;;;;;4177454;28;19925;-49
2022/01/29 08:10:08;;;;;;;;;;;-2.60;99.90;;;;;;4178521;28;20306;-51
2022/01/29 08:12:10;;;;;;;;;;;-2.60;99.90;;;;;;4168033;28;19932;-49
2022/01/29 08:14:13;;;;;;;;;;;-2.60;99.90;;;;;;4174320;28;19936;-50
2022/01/29 08:16:15;;;;;;;;;;;-2.50;99.90;;;;;;4178608;28;19925;-49
2022/01/29 08:18:17;;;;;;;;;;;-2.40;99.90;;;;;;4176699;28;20300;-50
2022/01/29 08:20:19;;;;;;;;;;;-2.30;99.90;;;;;;4185276;28;19925;-48
2022/01/29 08:22:21;;;;;;;;;;;-2.30;99.90;;;;;;4179398;28;19929;-50
2022/01/29 08:24:23;;;;;;;;;;;-2.20;99.90;;;;;;4167711;28;20553;-49
2022/01/29 08:26:25;;;;;;;;;;;-2.10;99.90;;;;;;4168989;28;19925;-51
2022/01/29 08:28:28;;;;;;;;;;;-2.00;99.90;;;;;;4163077;28;20023;-50
2022/01/29 08:30:29;;;;;;;;;;;-1.90;99.90;;;;;;4177502;28;19935;-51
2022/01/29 08:32:31;;;;;;;;;;;-1.70;99.90;;;;;;4176290;28;20397;-47
2022/01/29 08:34:33;;;;;;;;;;;-1.60;99.90;;;;;;4179207;28;19928;-50
2022/01/29 08:36:35;;;;;;;;;;;-1.40;99.90;;;;;;4177158;28;19928;-50
2022/01/29 08:38:37;;;;;;;;;;;-1.00;99.90;;;;;;4177435;28;19935;-47
2022/01/29 08:40:40;;;;;;;;;;;-0.70;99.90;;;;;;4176341;28;19936;-50
2022/01/29 08:42:41;;;;;;;;;;;-0.90;99.90;;;;;;4175122;28;19967;-49
2022/01/29 08:44:43;;;;;;;;;;;-1.00;99.90;;;;;;4177433;28;20071;-48
2022/01/29 08:46:45;;;;;;;;;;;-1.10;99.90;;;;;;4178833;28;19936;-50
2022/01/29 08:48:47;;;;;;;;;;;-1.10;99.90;;;;;;4172342;28;20348;-48
2022/01/29 08:50:49;;;;;;;;;;;-1.20;99.90;;;;;;4176078;28;20338;-51
2022/01/29 08:52:51;;;;;;;;;;;-1.30;99.90;;;;;;4177874;28;19978;-49
2022/01/29 08:54:53;;;;;;;;;;;-1.20;99.90;;;;;;4172325;28;19929;-51
2022/01/29 08:56:55;;;;;;;;;;;-1.20;99.90;;;;;;4177560;28;19929;-48
2022/01/29 08:58:56;;;;;;;;;;;-1.10;99.90;;;;;;4172086;28;19932;-49
2022/01/29 09:00:59;;;;;;;;;;;-1.00;99.90;;;;;;4176922;28;19936;-50
2022/01/29 09:03:01;;;;;;;;;;;-1.00;99.90;;;;;;4177151;28;19961;-50
2022/01/29 09:05:03;;;;;;;;;;;-0.90;99.90;;;;;;4168991;28;19940;-51
2022/01/29 09:07:05;;;;;;;;;;;-0.60;99.90;;;;;;4175435;28;19925;-50
2022/01/29 09:09:07;;;;;;;;;;;-0.40;99.90;;;;;;4177195;28;19929;-50
2022/01/29 09:11:09;;;;;;;;;;;-0.10;99.90;;;;;;4168452;28;20452;-51
2022/01/29 09:13:12;;;;;;;;;;;-0.10;99.90;;;;;;4175095;28;19998;-50
2022/01/29 09:15:14;;;;;;;;;;;0.00;99.90;;;;;;4160563;28;19925;-48
2022/01/29 09:17:16;;;;;;;;;;;0.10;99.90;;;;;;4167181;28;19936;-51
2022/01/29 09:19:19;;;;;;;;;;;0.10;99.90;;;;;;4174906;28;20273;-50
2022/01/29 09:21:21;;;;;;;;;;;0.10;99.90;;;;;;4178370;28;19936;-51
2022/01/29 09:23:23;;;;;;;;;;;0.10;99.90;;;;;;4176780;28;19935;-51
2022/01/29 09:25:26;;;;;;;;;;;0.20;99.90;;;;;;4176380;28;19960;-51
2022/01/29 09:27:28;;;;;;;;;;;0.30;99.90;;;;;;4178315;28;19925;-49
2022/01/29 09:29:30;;;;;;;;;;;0.40;99.90;;;;;;4174667;28;19970;-51
2022/01/29 09:31:32;;;;;;;;;;;0.50;99.90;;;;;;4174792;28;19925;-51
2022/01/29 09:33:34;;;;;;;;;;;0.70;99.90;;;;;;4178283;28;19925;-51
2022/01/29 09:35:38;;;;;;;;;;;0.90;99.90;;;;;;4176398;28;19931;-52
2022/01/29 09:37:40;;;;;;;;;;;1.30;99.90;;;;;;4175433;28;19944;-52
2022/01/29 09:39:45;;;;;;;;;;;1.40;99.90;;;;;;4178135;28;19983;-52
2022/01/29 09:41:46;;;;;;;;;;;1.40;99.90;;;;;;4169043;28;19929;-50
2022/01/29 09:43:50;;;;;;;;;;;1.50;99.90;;;;;;4167195;28;19931;-51
2022/01/29 09:45:53;;;;;;;;;;;1.40;99.90;;;;;;4178267;28;20376;-49
2022/01/29 09:48:01;;;;;;;;;;;1.50;99.90;;;;;;4175272;28;19928;-50
2022/01/29 09:50:03;;;;;;;;;;;1.60;99.90;;;;;;4176325;28;19928;-51
2022/01/29 09:52:05;;;;;;;;;;;1.80;99.90;;;;;;4162062;28;19925;-51
2022/01/29 09:54:07;;;;;;;;;;;2.00;99.90;;;;;;4173083;28;19952;-51
2022/01/29 09:56:09;;;;;;;;;;;2.10;99.90;;;;;;4176294;28;20355;-51
2022/01/29 09:58:12;;;;;;;;;;;2.20;99.90;;;;;;4178366;28;19929;-51
2022/01/29 10:00:14;;;;;;;;;;;2.40;99.90;;;;;;4170432;28;19935;-52
2022/01/29 10:02:17;;;;;;;;;;;2.60;99.90;;;;;;4165095;28;20376;-51
2022/01/29 10:04:19;;;;;;;;;;;2.80;99.90;;;;;;4177251;28;20800;-52
2022/01/29 10:06:21;;;;;;;;;;;2.90;99.90;;;;;;4176039;28;19933;-52
2022/01/29 10:08:23;;;;;;;;;;;3.00;99.90;;;;;;4175997;28;19929;-52
2022/01/29 10:10:24;;;;;;;;;;;3.20;99.90;;;;;;4175810;28;19925;-51
2022/01/29 10:12:27;;;;;;;;;;;3.30;99.90;;;;;;4175432;28;20391;-51
2022/01/29 10:14:44;;;;;;;;;;;3.50;99.90;;;;;;4176403;28;19933;-52
2022/01/29 10:16:46;;;;;;;;;;;3.60;99.90;;;;;;4177589;28;19940;-51
2022/01/29 10:19:02;;;;;;;;;;;3.80;99.90;;;;;;4174746;28;19928;-51
2022/01/29 10:21:24;;;;;;;;;;;3.90;99.90;;;;;;4173897;28;19959;-52
2022/01/29 10:23:30;;;;;;;;;;;4.10;99.90;;;;;;4160643;28;19940;-51
2022/01/29 10:25:33;;;;;;;;;;;4.30;99.90;;;;;;4175323;28;19978;-52
2022/01/29 10:27:35;;;;;;;;;;;4.50;99.90;;;;;;4175836;28;19978;-52
2022/01/29 10:29:57;;;;;;;;;;;4.60;99.90;;;;;;4172260;28;19975;-51
2022/01/29 10:32:00;;;;;;;;;;;4.80;99.90;;;;;;4172002;28;19929;-52
2022/01/29 10:34:13;;;;;;;;;;;5.00;99.90;;;;;;4173512;28;19935;-52
2022/01/29 10:36:16;;;;;;;;;;;5.10;99.90;;;;;;4174978;28;19976;-52
2022/01/29 10:38:20;;;;;;;;;;;5.20;99.90;;;;;;4174982;28;19925;-51
2022/01/29 10:40:27;;;;;;;;;;;5.40;99.90;;;;;;4174966;28;19928;-52
2022/01/29 10:42:31;;;;;;;;;;;5.60;99.70;;;;;;4176371;28;19928;-52
2022/01/29 10:44:41;;;;;;;;;;;6.30;99.90;;;;;;4175481;28;19925;-51
2022/01/29 10:46:45;;;;;;;;;;;6.50;98.10;;;;;;4172406;28;19929;-52
2022/01/29 10:48:47;;;;;;;;;;;6.50;98.60;;;;;;4175841;28;19932;-51
2022/01/29 10:51:08;;;;;;;;;;;6.60;97.70;;;;;;4174925;28;19948;-51
2022/01/29 10:53:39;;;;;;;;;;;6.70;97.80;;;;;;4174068;28;19935;-51
2022/01/29 10:55:56;;;;;;;;;;;7.20;96.60;;;;;;4134021;28;19968;-52
2022/01/29 10:57:58;;;;;;;;;;;7.50;96.80;;;;;;4140604;28;19925;-52
2022/01/29 11:00:00;;;;;;;;;;;7.80;96.60;;;;;;4138564;28;20028;-52
2022/01/29 11:02:03;;;;;;;;;;;8.40;95.50;;;;;;4138182;28;19940;-52
2022/01/29 11:04:05;;;;;;;;;;;8.30;93.20;;;;;;4140055;28;19932;-53
2022/01/29 11:06:10;;;;;;;;;;;8.90;92.60;;;;;;4139073;28;19929;-53
2022/01/29 11:08:12;;;;;;;;;;;9.10;90.60;;;;;;4135238;28;19954;-53
2022/01/29 11:10:14;;;;;;;;;;;9.10;92.40;;;;;;4132792;28;19929;-52
2022/01/29 11:12:20;;;;;;;;;;;9.00;90.90;;;;;;4139448;28;19925;-51
2022/01/29 11:14:24;;;;;;;;;;;9.10;87.80;;;;;;4128713;28;19934;-53
2022/01/29 11:16:26;;;;;;;;;;;9.30;86.10;;;;;;4132827;28;19933;-51
2022/01/29 11:18:28;;;;;;;;;;;9.80;82.70;;;;;;4139521;28;19925;-52
2022/01/29 11:20:29;;;;;;;;;;;9.60;82.40;;;;;;4126656;28;19933;-52
2022/01/29 11:22:35;;;;;;;;;;;9.40;82.70;;;;;;4140962;28;19970;-52
2022/01/29 11:24:38;;;;;;;;;;;9.60;82.60;;;;;;4138594;28;20012;-52
2022/01/29 11:26:41;;;;;;;;;;;9.60;76.70;;;;;;4133027;28;19933;-51
2022/01/29 11:28:42;;;;;;;;;;;9.30;76.30;;;;;;4138565;28;19926;-53
2022/01/29 11:30:46;;;;;;;;;;;9.90;79.70;;;;;;4138375;28;20564;-53
2022/01/29 11:32:54;;;;;;;;;;;10.00;75.80;;;;;;4162902;28;19936;-52
2022/01/29 11:35:11;;;;;;;;;;;10.20;75.10;;;;;;4154486;28;19925;-51
2022/01/29 11:37:13;;;;;;;;;;;10.40;74.50;;;;;;4175534;28;19939;-53
2022/01/29 11:39:35;;;;;;;;;;;10.00;70.20;;;;;;4174139;28;19933;-52
2022/01/29 11:41:37;;;;;;;;;;;10.00;70.50;;;;;;4169132;28;19925;-52
2022/01/29 11:43:38;;;;;;;;;;;10.50;75.40;;;;;;4171365;28;19933;-52
2022/01/29 11:45:43;;;;;;;;;;;10.20;68.20;;;;;;4173376;28;20032;-53
2022/01/29 11:47:45;;;;;;;;;;;10.50;73.20;;;;;;4175400;28;19955;-51
2022/01/29 11:49:48;;;;;;;;;;;10.20;66.60;;;;;;4175010;28;19936;-52
2022/01/29 11:51:50;;;;;;;;;;;10.40;67.50;;;;;;4177789;28;19929;-52
2022/01/29 11:53:52;;;;;;;;;;;10.60;68.00;;;;;;4177347;28;20304;-52
2022/01/29 11:55:55;;;;;;;;;;;10.60;65.20;;;;;;4176731;28;19929;-53
2022/01/29 11:58:15;;;;;;;;;;;10.60;65.10;;;;;;4172558;28;19936;-51
2022/01/29 12:00:33;;;;;;;;;;;10.60;62.70;;;;;;4179369;28;20045;-52
2022/01/29 12:02:36;;;;;;;;;;;10.70;63.10;;;;;;4177580;28;19936;-52
2022/01/29 12:05:04;;;;;;;;;;;11.30;67.20;;;;;;4178198;28;19971;-52
2022/01/29 12:07:20;;;;;;;;;;;11.30;66.30;;;;;;4176910;28;20285;-55
2022/01/29 12:09:25;;;;;;;;;;;11.30;65.10;;;;;;4177306;28;19963;-54
2022/01/29 12:11:27;;;;;;;;;;;11.50;65.80;;;;;;4177567;28;20034;-55
2022/01/29 12:13:28;;;;;;;;;;;11.50;64.80;;;;;;4177530;28;20035;-54
2022/01/29 12:15:35;;;;;;;;;;;11.30;63.10;;;;;;4178297;28;19951;-55